createdAt,value
2023-05-05T00:00:04.862Z,78.2
2023-05-05T00:01:01.830Z,78.1
2023-05-05T00:03:01.982Z,78.4
2023-05-05T00:05:02.551Z,78.5
2023-05-05T00:06:01.619Z,78.7
2023-05-05T00:07:01.996Z,79.3
2023-05-05T00:08:03.127Z,79.6
2023-05-05T00:09:03.663Z,79.6
2023-05-05T00:10:01.851Z,79.9
2023-05-05T00:11:03.685Z,79.8
2023-05-05T00:12:01.513Z,79.3
2023-05-05T00:13:02.037Z,78.9
2023-05-05T00:14:01.528Z,79
2023-05-05T00:15:02.625Z,79.1
2023-05-05T00:16:03.341Z,79.2
2023-05-05T00:17:03.991Z,79.2
2023-05-05T00:18:01.868Z,79.4
2023-05-05T00:19:02.151Z,79.4
2023-05-05T00:20:01.895Z,79
2023-05-05T00:21:02.362Z,78.9
2023-05-05T00:22:01.825Z,78.9
2023-05-05T00:23:01.705Z,78.7
2023-05-05T00:24:02.145Z,79
2023-05-05T00:25:02.667Z,79
2023-05-05T00:26:03.988Z,78.9
2023-05-05T00:27:01.747Z,78.9
2023-05-05T00:28:02.347Z,79
2023-05-05T00:29:01.649Z,79.1
2023-05-05T00:30:02.882Z,79.7
2023-05-05T00:31:01.884Z,79.8
2023-05-05T00:32:02.316Z,78.9
2023-05-05T00:33:02.052Z,78.2
2023-05-05T00:34:02.156Z,78.4
2023-05-05T00:35:02.359Z,78.3
2023-05-05T00:36:01.366Z,78.3
2023-05-05T00:37:03.506Z,79.1
2023-05-05T00:38:02.310Z,79.2
2023-05-05T00:39:03.424Z,78.5
2023-05-05T00:40:02.501Z,79
2023-05-05T00:41:03.681Z,79
2023-05-05T00:42:01.424Z,79.1
2023-05-05T00:43:01.907Z,78.9
2023-05-05T00:44:01.423Z,78.2
2023-05-05T00:45:02.523Z,78.4
2023-05-05T00:46:01.564Z,79
2023-05-05T00:47:03.601Z,79.2
2023-05-05T00:48:01.584Z,78.8
2023-05-05T00:49:01.932Z,77.9
2023-05-05T00:50:01.595Z,78.5
2023-05-05T00:51:01.822Z,78.2
2023-05-05T00:52:03.048Z,78.7
2023-05-05T00:53:01.846Z,79.2
2023-05-05T00:54:02.327Z,78.9
2023-05-05T00:55:02.603Z,78.9
2023-05-05T00:56:03.096Z,79.5
2023-05-05T00:57:01.847Z,80
2023-05-05T00:58:01.447Z,79.9
2023-05-05T00:59:01.838Z,78.9
2023-05-05T01:00:01.721Z,79.2
2023-05-05T01:01:01.844Z,79.7
2023-05-05T01:02:02.369Z,79.9
2023-05-05T01:03:04.562Z,79.7
2023-05-05T01:04:02.029Z,79.6
2023-05-05T01:05:02.144Z,79.2
2023-05-05T01:06:02.245Z,79.3
2023-05-05T01:07:01.686Z,79.6
2023-05-05T01:08:02.172Z,79.7
2023-05-05T01:09:01.720Z,79.8
2023-05-05T01:10:18.304Z,79.5
2023-05-05T01:11:03.440Z,79.8
2023-05-05T01:12:03.999Z,79.9
2023-05-05T01:13:03.805Z,80
2023-05-05T01:14:03.083Z,80.6
2023-05-05T01:15:02.762Z,81.2
2023-05-05T01:16:01.582Z,80.3
2023-05-05T01:17:02.080Z,80.9
2023-05-05T01:18:01.579Z,80.6
2023-05-05T01:19:03.796Z,81.4
2023-05-05T01:20:02.337Z,81.2
2023-05-05T01:21:02.330Z,80.4
2023-05-05T01:22:01.772Z,80.9
2023-05-05T01:23:02.337Z,81.3
2023-05-05T01:24:01.855Z,82
2023-05-05T01:25:02.218Z,82.1
2023-05-05T01:26:02.178Z,82.5
2023-05-05T01:27:03.439Z,82.7
2023-05-05T01:28:01.460Z,82.9
2023-05-05T01:29:01.999Z,83
2023-05-05T01:30:02.632Z,82.6
2023-05-05T01:31:03.058Z,82.3
2023-05-05T01:32:01.825Z,82.4
2023-05-05T01:33:02.242Z,82.2
2023-05-05T01:34:01.780Z,81.5
2023-05-05T01:35:02.178Z,81.5
2023-05-05T01:36:03.697Z,81.3
2023-05-05T01:37:03.154Z,81.1
2023-05-05T01:38:01.831Z,81
2023-05-05T01:39:03.026Z,81
2023-05-05T01:40:03.558Z,80.6
2023-05-05T01:41:04.032Z,80.8
2023-05-05T01:42:01.758Z,80.9
2023-05-05T01:43:02.362Z,80.3
2023-05-05T01:44:03.369Z,80.7
2023-05-05T01:45:03.840Z,80.7
2023-05-05T01:46:01.870Z,80.6
2023-05-05T01:47:03.085Z,80.8
2023-05-05T01:48:01.894Z,80.5
2023-05-05T01:49:02.310Z,80.3
2023-05-05T01:50:01.806Z,80
2023-05-05T01:51:02.244Z,80.2
2023-05-05T01:52:01.755Z,80.3
2023-05-05T01:53:02.249Z,80.4
2023-05-05T01:54:03.438Z,79.8
2023-05-05T01:55:03.216Z,79.3
2023-05-05T01:56:01.828Z,79.5
2023-05-05T01:57:02.317Z,79.9
2023-05-05T01:58:01.765Z,80.1
2023-05-05T01:59:02.220Z,80.4
2023-05-05T02:00:02.481Z,80.1
2023-05-05T02:01:03.974Z,80.7
2023-05-05T02:02:01.867Z,80.8
2023-05-05T02:03:03.989Z,80.2
2023-05-05T02:04:01.668Z,80.3
2023-05-05T02:06:04.015Z,79.5
2023-05-05T02:07:01.513Z,79.9
2023-05-05T02:08:02.002Z,80.2
2023-05-05T02:09:01.477Z,79.7
2023-05-05T02:10:02.265Z,80.4
2023-05-05T02:11:01.449Z,81.6
2023-05-05T02:12:02.078Z,82.2
2023-05-05T02:13:01.537Z,81.7
2023-05-05T02:14:01.981Z,81.5
2023-05-05T02:15:02.380Z,82.4
2023-05-05T02:16:02.140Z,82.8
2023-05-05T02:17:01.615Z,82.1
2023-05-05T02:18:03.765Z,81.8
2023-05-05T02:19:03.225Z,82
2023-05-05T02:20:02.447Z,81.4
2023-05-05T02:21:01.599Z,80.8
2023-05-05T02:22:02.078Z,80.6
2023-05-05T02:23:01.511Z,80.8
2023-05-05T02:24:02.018Z,80.6
2023-05-05T02:25:02.237Z,80.3
2023-05-05T02:26:03.841Z,80
2023-05-05T02:27:03.303Z,80.2
2023-05-05T02:28:02.075Z,80
2023-05-05T02:29:01.607Z,80.9
2023-05-05T02:30:03.837Z,81.9
2023-05-05T02:31:01.677Z,82.1
2023-05-05T02:32:02.068Z,82.5
2023-05-05T02:33:01.627Z,82.9
2023-05-05T02:34:02.163Z,83
2023-05-05T02:35:02.683Z,83.1
2023-05-05T02:36:03.993Z,83
2023-05-05T02:37:01.843Z,83.2
2023-05-05T02:38:03.801Z,83.1
2023-05-05T02:39:01.531Z,82.8
2023-05-05T02:40:03.716Z,82.4
2023-05-05T02:41:01.537Z,82.3
2023-05-05T02:42:02.096Z,82.7
2023-05-05T02:43:01.493Z,82.3
2023-05-05T02:44:03.597Z,82.9
2023-05-05T02:45:02.193Z,83.3
2023-05-05T02:46:02.048Z,83.5
2023-05-05T02:47:01.456Z,83.6
2023-05-05T02:48:03.716Z,83.4
2023-05-05T02:49:01.466Z,83.7
2023-05-05T02:50:02.762Z,83.5
2023-05-05T02:51:01.399Z,83.4
2023-05-05T02:52:03.523Z,83.8
2023-05-05T02:53:01.360Z,83.8
2023-05-05T02:54:03.536Z,83.4
2023-05-05T02:55:02.160Z,82.6
2023-05-05T02:56:01.925Z,82.7
2023-05-05T02:57:03.042Z,82.3
2023-05-05T02:58:01.836Z,82
2023-05-05T02:59:03.041Z,81.5
2023-05-05T03:00:02.694Z,81.3
2023-05-05T03:01:02.973Z,81.5
2023-05-05T03:02:02.755Z,82.1
2023-05-05T03:03:02.747Z,82.6
2023-05-05T03:04:02.129Z,82.7
2023-05-05T03:05:02.263Z,83
2023-05-05T03:06:02.141Z,83.1
2023-05-05T03:07:01.525Z,83
2023-05-05T03:08:01.980Z,82.5
2023-05-05T03:09:01.526Z,81.7
2023-05-05T03:10:02.045Z,82.2
2023-05-05T03:11:01.501Z,82.5
2023-05-05T03:12:03.597Z,82.8
2023-05-05T03:13:01.666Z,82.8
2023-05-05T03:14:01.903Z,82.7
2023-05-05T03:15:02.276Z,82.6
2023-05-05T03:16:03.730Z,82.4
2023-05-05T03:17:01.754Z,82.4
2023-05-05T03:18:02.027Z,82.2
2023-05-05T03:19:01.610Z,82.1
2023-05-05T03:20:04.394Z,82
2023-05-05T03:21:01.856Z,82.2
2023-05-05T03:22:03.050Z,82.4
2023-05-05T03:23:01.839Z,82.2
2023-05-05T03:24:01.360Z,82.5
2023-05-05T03:25:02.648Z,82
2023-05-05T03:26:01.386Z,82
2023-05-05T03:27:01.866Z,82.2
2023-05-05T03:28:01.376Z,82.1
2023-05-05T03:29:03.534Z,81.6
2023-05-05T03:30:03.736Z,81.2
2023-05-05T03:31:02.357Z,80.8
2023-05-05T03:32:01.803Z,80.9
2023-05-05T03:33:02.355Z,81.6
2023-05-05T03:34:01.768Z,81.7
2023-05-05T03:35:02.166Z,81.3
2023-05-05T03:36:02.083Z,81.4
2023-05-05T03:37:01.597Z,81.4
2023-05-05T03:38:02.069Z,81.1
2023-05-05T03:39:01.598Z,81.1
2023-05-05T03:40:02.699Z,81
2023-05-05T03:41:01.707Z,81.2
2023-05-05T03:42:02.240Z,81.1
2023-05-05T03:43:01.757Z,81.1
2023-05-05T03:44:02.235Z,81.5
2023-05-05T03:45:02.480Z,81.4
2023-05-05T03:46:01.505Z,81.6
2023-05-05T03:47:01.784Z,81.3
2023-05-05T03:48:02.310Z,81.1
2023-05-05T03:49:01.864Z,81
2023-05-05T03:50:03.101Z,81.2
2023-05-05T03:51:01.686Z,81.9
2023-05-05T03:52:02.219Z,81.9
2023-05-05T03:53:03.347Z,82.5
2023-05-05T03:54:02.070Z,83.1
2023-05-05T03:55:02.406Z,83
2023-05-05T03:56:02.182Z,83
2023-05-05T03:57:01.607Z,82.9
2023-05-05T03:58:02.100Z,82.6
2023-05-05T03:59:03.232Z,82.2
2023-05-05T04:00:02.047Z,82
2023-05-05T04:01:01.513Z,81.8
2023-05-05T04:02:03.740Z,81.6
2023-05-05T04:03:01.560Z,81.9
2023-05-05T04:04:01.979Z,81.9
2023-05-05T04:05:02.585Z,81.8
2023-05-05T04:06:02.018Z,81.8
2023-05-05T04:07:01.534Z,81.8
2023-05-05T04:08:02.001Z,81.7
2023-05-05T04:09:01.541Z,82.2
2023-05-05T04:10:02.062Z,82.2
2023-05-05T04:11:03.217Z,82.4
2023-05-05T04:12:02.021Z,82
2023-05-05T04:13:01.517Z,81.8
2023-05-05T04:14:01.929Z,82
2023-05-05T04:15:02.217Z,82.3
2023-05-05T04:16:02.073Z,82.2
2023-05-05T04:17:03.127Z,82.3
2023-05-05T04:18:02.037Z,82.3
2023-05-05T04:19:03.130Z,82.3
2023-05-05T04:20:02.227Z,82.4
2023-05-05T04:21:01.467Z,82.2
2023-05-05T04:22:02.018Z,82.2
2023-05-05T04:23:01.362Z,81.9
2023-05-05T04:24:01.874Z,82
2023-05-05T04:25:02.628Z,82.2
2023-05-05T04:26:02.026Z,82.3
2023-05-05T04:27:01.522Z,82.5
2023-05-05T04:28:02.008Z,82.5
2023-05-05T04:29:01.617Z,82.5
2023-05-05T04:30:02.074Z,82.5
2023-05-05T04:31:01.481Z,82.3
2023-05-05T04:32:03.586Z,82.2
2023-05-05T04:33:01.452Z,82.2
2023-05-05T04:34:01.914Z,82.3
2023-05-05T04:35:02.273Z,82.1
2023-05-05T04:36:02.188Z,82
2023-05-05T04:37:01.685Z,81.9
2023-05-05T04:38:02.174Z,81.9
2023-05-05T04:39:01.618Z,81.8
2023-05-05T04:40:02.211Z,82
2023-05-05T04:41:03.442Z,82
2023-05-05T04:42:02.172Z,82.1
2023-05-05T04:43:01.598Z,82
2023-05-05T04:44:03.756Z,82.2
2023-05-05T04:45:02.350Z,82.3
2023-05-05T04:46:02.164Z,82.2
2023-05-05T04:47:01.772Z,82.3
2023-05-05T04:48:02.177Z,82.4
2023-05-05T04:49:03.361Z,82.4
2023-05-05T04:50:04.845Z,82.2
2023-05-05T04:51:01.680Z,82.1
2023-05-05T04:52:02.178Z,82
2023-05-05T04:53:01.688Z,82
2023-05-05T04:54:01.863Z,82.3
2023-05-05T04:55:03.719Z,82.3
2023-05-05T04:56:02.277Z,82.3
2023-05-05T04:57:03.449Z,82.3
2023-05-05T04:58:03.864Z,82.5
2023-05-05T04:59:01.686Z,82.8
2023-05-05T05:00:02.783Z,83
2023-05-05T05:03:03.116Z,82.4
2023-05-05T05:04:02.447Z,82.5
2023-05-05T05:05:02.432Z,82.8
2023-05-05T05:06:01.410Z,82.9
2023-05-05T05:07:01.867Z,82.8
2023-05-05T05:08:01.468Z,82.9
2023-05-05T05:09:03.612Z,82.8
2023-05-05T05:10:02.360Z,83
2023-05-05T05:11:01.785Z,83
2023-05-05T05:12:02.346Z,82.5
2023-05-05T05:13:01.795Z,82.3
2023-05-05T05:14:02.284Z,82.3
2023-05-05T05:15:02.630Z,82.4
2023-05-05T05:16:01.611Z,82.4
2023-05-05T05:17:02.026Z,82.4
2023-05-05T05:18:01.548Z,82.4
2023-05-05T05:19:03.689Z,82.5
2023-05-05T05:20:05.434Z,82.5
2023-05-05T05:21:01.821Z,82.4
2023-05-05T05:22:02.185Z,82.4
2023-05-05T05:23:01.618Z,82.4
2023-05-05T05:24:02.168Z,82.3
2023-05-05T05:25:02.437Z,82.2
2023-05-05T05:26:02.292Z,82.2
2023-05-05T05:27:01.721Z,82.1
2023-05-05T05:28:10.098Z,82.1
2023-05-05T05:29:01.738Z,82
2023-05-05T05:30:02.206Z,82
2023-05-05T05:31:01.622Z,81.8
2023-05-05T05:32:02.243Z,81.6
2023-05-05T05:33:01.672Z,81.3
2023-05-05T05:34:02.106Z,81.3
2023-05-05T05:35:04.539Z,81.1
2023-05-05T05:36:01.829Z,80.9
2023-05-05T05:37:02.181Z,80.8
2023-05-05T05:38:01.797Z,80.7
2023-05-05T05:39:03.833Z,80.4
2023-05-05T05:40:02.521Z,80.4
2023-05-05T05:41:02.164Z,80.4
2023-05-05T05:42:01.683Z,80.2
2023-05-05T05:43:02.190Z,79.8
2023-05-05T05:44:01.701Z,79.1
2023-05-05T05:45:02.973Z,78.9
2023-05-05T05:46:01.747Z,78.6
2023-05-05T05:47:02.252Z,78.4
2023-05-05T05:48:01.743Z,78.4
2023-05-05T05:49:02.255Z,78.3
2023-05-05T05:50:01.847Z,78.2
2023-05-05T05:51:02.197Z,78.2
2023-05-05T05:52:01.686Z,77.9
2023-05-05T05:53:02.155Z,77.7
2023-05-05T05:54:01.692Z,77.5
2023-05-05T05:55:04.731Z,77.2
2023-05-05T05:56:01.691Z,77.1
2023-05-05T05:57:02.255Z,76.7
2023-05-05T05:58:01.689Z,76.6
2023-05-05T05:59:02.240Z,76.5
2023-05-05T06:00:02.609Z,76.1
2023-05-05T06:01:03.040Z,76
2023-05-05T06:02:02.012Z,76
2023-05-05T06:03:01.819Z,76.1
2023-05-05T06:04:02.242Z,75.9
2023-05-05T06:05:02.630Z,75.9
2023-05-05T06:06:02.372Z,75.9
2023-05-05T06:07:01.789Z,75.8
2023-05-05T06:08:03.998Z,75.8
2023-05-05T06:09:01.788Z,75.7
2023-05-05T06:10:25.171Z,75.8
2023-05-05T06:11:01.696Z,75.7
2023-05-05T06:12:04.006Z,75.6
2023-05-05T06:13:01.764Z,75.1
2023-05-05T06:14:02.188Z,75.3
2023-05-05T06:15:02.378Z,75
2023-05-05T06:16:02.354Z,74.9
2023-05-05T06:17:01.766Z,75.3
2023-05-05T06:18:02.350Z,74.6
2023-05-05T06:19:01.723Z,73.8
2023-05-05T06:20:03.030Z,73.8
2023-05-05T06:21:01.826Z,73.4
2023-05-05T06:22:02.281Z,73.8
2023-05-05T06:23:01.682Z,72.9
2023-05-05T06:24:02.165Z,73.3
2023-05-05T06:25:04.305Z,73.7
2023-05-05T06:26:04.085Z,72.9
2023-05-05T06:27:01.770Z,72.4
2023-05-05T06:28:02.258Z,72.4
2023-05-05T06:29:01.779Z,72.7
2023-05-05T06:30:02.574Z,71.6
2023-05-05T06:31:01.923Z,71.6
2023-05-05T06:32:02.332Z,71.6
2023-05-05T06:33:01.826Z,71.8
2023-05-05T06:37:02.092Z,71.9
2023-05-05T06:38:02.304Z,71.9
2023-05-05T06:39:03.511Z,71.8
2023-05-05T06:40:03.025Z,71.6
2023-05-05T06:41:01.774Z,71.4
2023-05-05T06:42:03.922Z,71
2023-05-05T06:43:03.356Z,71.2
2023-05-05T06:44:02.156Z,71.1
2023-05-05T06:45:02.508Z,71
2023-05-05T06:46:02.260Z,70.9
2023-05-05T06:47:01.858Z,71.2
2023-05-05T06:48:02.358Z,71.2
2023-05-05T06:49:03.344Z,71.2
2023-05-05T06:50:04.798Z,71.1
2023-05-05T06:51:01.843Z,71.1
2023-05-05T06:52:02.185Z,71
2023-05-05T06:53:01.748Z,71.1
2023-05-05T06:54:02.146Z,71.6
2023-05-05T06:55:02.481Z,70.7
2023-05-05T06:56:03.945Z,70.5
2023-05-05T06:57:01.752Z,70.2
2023-05-05T06:58:02.233Z,70.4
2023-05-05T06:59:01.743Z,69.6
2023-05-05T07:00:02.945Z,69.4
2023-05-05T07:01:04.413Z,69.9
2023-05-05T07:02:04.307Z,68.3
2023-05-05T07:03:01.665Z,68.4
2023-05-05T07:04:01.921Z,68.4
2023-05-05T07:05:02.359Z,68.6
2023-05-05T07:06:01.991Z,69.1
2023-05-05T07:07:01.532Z,64.9
2023-05-05T07:08:02.069Z,66.2
2023-05-05T07:09:01.860Z,64
2023-05-05T07:10:02.136Z,63.8
2023-05-05T07:11:02.240Z,64.1
2023-05-05T07:12:01.782Z,64.2
2023-05-05T07:13:02.239Z,65.3
2023-05-05T07:14:03.359Z,65.1
2023-05-05T07:15:12.192Z,64.3
2023-05-05T07:16:03.544Z,65.1
2023-05-05T07:17:02.377Z,64.6
2023-05-05T07:18:01.827Z,64.8
2023-05-05T07:19:02.229Z,63.9
2023-05-05T07:20:01.695Z,62.9
2023-05-05T07:21:03.840Z,64.7
2023-05-05T07:22:01.709Z,65.2
2023-05-05T07:23:02.176Z,64
2023-05-05T07:24:01.603Z,64.6
2023-05-05T07:25:04.712Z,65.3
2023-05-05T07:26:02.000Z,65.9
2023-05-05T07:27:01.538Z,65.6
2023-05-05T07:28:01.997Z,65.9
2023-05-05T07:29:01.463Z,66
2023-05-05T07:30:02.948Z,65.7
2023-05-05T07:31:01.369Z,65.6
2023-05-05T07:32:01.887Z,65
2023-05-05T07:33:01.381Z,64.2
2023-05-05T07:34:01.883Z,63
2023-05-05T07:35:02.079Z,61.7
2023-05-05T07:36:02.007Z,62.7
2023-05-05T07:37:01.430Z,63.1
2023-05-05T07:38:03.589Z,66.2
2023-05-05T07:39:03.048Z,64.7
2023-05-05T07:40:02.070Z,63.1
2023-05-05T07:41:01.384Z,61.7
2023-05-05T07:42:01.822Z,60.4
2023-05-05T07:44:01.856Z,63.5
2023-05-05T07:45:02.913Z,63.8
2023-05-05T07:46:01.832Z,64.1
2023-05-05T07:47:03.934Z,62.1
2023-05-05T07:48:01.771Z,59.1
2023-05-05T07:49:02.169Z,60.2
2023-05-05T07:50:01.697Z,61.6
2023-05-05T07:51:02.201Z,59.6
2023-05-05T07:52:01.602Z,60.2
2023-05-05T07:53:13.546Z,58.7
2023-05-05T07:54:01.642Z,57.7
2023-05-05T07:55:02.930Z,58
2023-05-05T07:56:01.718Z,57.7
2023-05-05T07:57:03.900Z,57.5
2023-05-05T07:58:01.713Z,58.9
2023-05-05T07:59:02.173Z,57.6
2023-05-05T08:00:02.280Z,57.6
2023-05-05T08:01:02.320Z,58
2023-05-05T08:02:01.767Z,57.7
2023-05-05T08:03:02.381Z,56.7
2023-05-05T08:04:01.775Z,57.6
2023-05-05T08:05:03.126Z,57.1
2023-05-05T08:06:01.794Z,57.4
2023-05-05T08:07:04.024Z,56.9
2023-05-05T08:08:01.713Z,57.6
2023-05-05T08:09:02.205Z,57.2
2023-05-05T08:10:02.621Z,56.6
2023-05-05T08:12:01.867Z,57
2023-05-05T08:13:02.339Z,56.6
2023-05-05T08:14:03.481Z,56.6
2023-05-05T08:16:04.408Z,57.1
2023-05-05T08:17:03.429Z,57.4
2023-05-05T08:18:02.289Z,56.2
2023-05-05T08:19:01.639Z,56.8
2023-05-05T08:20:04.048Z,55.9
2023-05-05T08:21:01.659Z,54.9
2023-05-05T08:22:02.160Z,54
2023-05-05T08:23:01.614Z,54.3
2023-05-05T08:24:02.078Z,55.1
2023-05-05T08:25:02.238Z,56
2023-05-05T08:26:02.237Z,54.7
2023-05-05T08:27:01.674Z,55
2023-05-05T08:28:02.185Z,54.2
2023-05-05T08:29:01.625Z,55.1
2023-05-05T08:30:02.990Z,54.5
2023-05-05T08:31:01.671Z,55.4
2023-05-05T08:32:02.104Z,54.4
2023-05-05T08:33:03.315Z,54.4
2023-05-05T08:34:02.080Z,55.8
2023-05-05T08:35:02.378Z,56.5
2023-05-05T08:36:03.775Z,54.5
2023-05-05T08:37:01.596Z,56.1
2023-05-05T08:38:03.760Z,53.1
2023-05-05T08:39:03.188Z,51.1
2023-05-05T08:40:02.326Z,51.6
2023-05-05T08:41:01.534Z,50.7
2023-05-05T08:42:02.068Z,50.8
2023-05-05T08:43:01.521Z,52.3
2023-05-05T08:44:02.005Z,50.2
2023-05-05T08:45:02.356Z,53.1
2023-05-05T08:46:03.685Z,51.6
2023-05-05T08:47:01.736Z,50.3
2023-05-05T08:48:02.074Z,52
2023-05-05T08:49:01.437Z,49.8
2023-05-05T08:50:02.596Z,51.1
2023-05-05T08:51:04.006Z,50.5
2023-05-05T08:52:02.026Z,49.7
2023-05-05T08:53:01.467Z,51.8
2023-05-05T08:54:01.918Z,50.2
2023-05-05T08:55:02.330Z,50.4
2023-05-05T08:56:02.096Z,51.4
2023-05-05T08:57:01.543Z,52.4
2023-05-05T08:58:02.005Z,50.2
2023-05-05T08:59:01.553Z,50.8
2023-05-05T09:00:02.106Z,50.4
2023-05-05T09:01:03.383Z,49.9
2023-05-05T09:02:03.031Z,48.6
2023-05-05T09:03:02.848Z,52.4
2023-05-05T09:04:03.177Z,49
2023-05-05T09:05:02.773Z,49.8
2023-05-05T09:06:01.822Z,50.3
2023-05-05T09:08:01.875Z,48.8
2023-05-05T09:09:03.044Z,49.4
2023-05-05T09:10:02.758Z,48.7
2023-05-05T09:11:01.642Z,49
2023-05-05T09:12:02.187Z,52.4
2023-05-05T09:13:01.710Z,48.9
2023-05-05T09:14:02.156Z,50.3
2023-05-05T09:15:04.404Z,51.6
2023-05-05T09:16:03.646Z,50.7
2023-05-05T09:17:03.204Z,50.2
2023-05-05T09:18:03.756Z,51.8
2023-05-05T09:19:01.606Z,51
2023-05-05T09:20:04.898Z,49.8
2023-05-05T09:21:03.533Z,49.5
2023-05-05T09:22:01.383Z,49.1
2023-05-05T09:23:01.866Z,49.4
2023-05-05T09:24:07.817Z,52.4
2023-05-05T09:25:02.667Z,51.2
2023-05-05T09:26:04.034Z,49.1
2023-05-05T09:27:01.762Z,49.6
2023-05-05T09:28:02.257Z,49.7
2023-05-05T09:29:01.690Z,50.7
2023-05-05T09:30:02.194Z,49.7
2023-05-05T09:31:01.732Z,48.9
2023-05-05T09:32:02.143Z,49.7
2023-05-05T09:33:01.646Z,50.2
2023-05-05T09:34:02.088Z,50.6
2023-05-05T09:35:02.169Z,51.6
2023-05-05T09:36:02.072Z,51.7
2023-05-05T09:37:01.699Z,50.9
2023-05-05T09:38:02.091Z,50.1
2023-05-05T09:39:01.513Z,49.7
2023-05-05T09:40:02.039Z,50.9
2023-05-05T09:41:01.650Z,51.4
2023-05-05T09:42:01.991Z,51.3
2023-05-05T09:43:01.458Z,51.3
2023-05-05T09:44:01.909Z,52.1
2023-05-05T09:45:02.140Z,53.8
2023-05-05T09:46:02.130Z,51.3
2023-05-05T09:47:01.519Z,51.3
2023-05-05T09:48:02.057Z,50.6
2023-05-05T09:49:01.450Z,50.6
2023-05-05T09:50:02.779Z,50.3
2023-05-05T09:51:01.516Z,49.7
2023-05-05T09:52:03.666Z,50.6
2023-05-05T09:53:03.115Z,51.5
2023-05-05T09:54:03.591Z,50.7
2023-05-05T09:55:02.188Z,49.5
2023-05-05T09:56:01.973Z,49
2023-05-05T09:57:03.222Z,50.2
2023-05-05T09:58:01.936Z,50.9
2023-05-05T09:59:01.365Z,50.5
2023-05-05T10:00:02.944Z,54.5
2023-05-05T10:01:01.468Z,49.2
2023-05-05T10:02:03.654Z,51.3
2023-05-05T10:03:01.462Z,50.1
2023-05-05T10:04:03.535Z,52.6
2023-05-05T10:05:02.551Z,51.8
2023-05-05T10:06:01.950Z,51.5
2023-05-05T10:07:01.481Z,51.3
2023-05-05T10:08:01.919Z,50.1
2023-05-05T10:09:01.372Z,54.3
2023-05-05T10:10:02.246Z,50.3
2023-05-05T10:11:01.445Z,49.5
2023-05-05T10:12:01.945Z,50.5
2023-05-05T10:13:01.447Z,49.9
2023-05-05T10:14:01.846Z,49.6
2023-05-05T10:15:02.335Z,52
2023-05-05T10:16:02.001Z,52.1
2023-05-05T10:17:01.474Z,49.8
2023-05-05T10:18:08.250Z,49.9
2023-05-05T10:19:01.352Z,50
2023-05-05T10:20:04.111Z,53.3
2023-05-05T10:21:01.525Z,52.2
2023-05-05T10:22:02.102Z,52.4
2023-05-05T10:23:01.510Z,50.7
2023-05-05T10:24:03.688Z,51.3
2023-05-05T10:25:02.141Z,49.2
2023-05-05T10:26:02.015Z,51.7
2023-05-05T10:27:01.551Z,51.6
2023-05-05T10:28:02.006Z,51.1
2023-05-05T10:29:01.456Z,51.9
2023-05-05T10:30:02.107Z,50.9
2023-05-05T10:31:07.832Z,52.6
2023-05-05T10:32:02.706Z,50.3
2023-05-05T10:33:22.280Z,53.2
2023-05-05T10:34:01.853Z,52.4
2023-05-05T10:35:03.026Z,52.1
2023-05-05T10:36:01.768Z,52.9
2023-05-05T10:37:02.185Z,49.6
2023-05-05T10:38:01.607Z,50.8
2023-05-05T10:39:03.744Z,50.1
2023-05-05T10:40:02.377Z,51.8
2023-05-05T10:41:03.760Z,49.4
2023-05-05T10:42:01.532Z,52.2
2023-05-05T10:43:01.989Z,50.5
2023-05-05T10:44:04.462Z,52.1
2023-05-05T10:45:02.756Z,55.7
2023-05-05T10:46:01.719Z,49.8
2023-05-05T10:47:02.269Z,52
2023-05-05T10:48:01.802Z,51.1
2023-05-05T10:49:02.169Z,53.2
2023-05-05T10:50:02.445Z,50.4
2023-05-05T10:51:02.165Z,51.2
2023-05-05T10:52:03.418Z,51.6
2023-05-05T10:53:02.255Z,51.2
2023-05-05T10:54:01.712Z,52.9
2023-05-05T10:55:01.937Z,52
2023-05-05T10:56:01.839Z,50
2023-05-05T10:57:01.291Z,49.7
2023-05-05T10:58:01.856Z,49.2
2023-05-05T10:59:02.314Z,50.1
2023-05-05T11:00:01.783Z,50.4
2023-05-05T11:01:02.276Z,50.6
2023-05-05T11:02:03.525Z,51.7
2023-05-05T11:03:04.013Z,52
2023-05-05T11:04:03.587Z,50.8
2023-05-05T11:05:02.942Z,50.6
2023-05-05T11:06:01.784Z,50.6
2023-05-05T11:07:02.160Z,50.9
2023-05-05T11:08:03.281Z,50.9
2023-05-05T11:09:02.064Z,50
2023-05-05T11:10:02.012Z,51.3
2023-05-05T11:11:02.073Z,50.8
2023-05-05T11:12:03.270Z,49.9
2023-05-05T11:13:02.121Z,50.2
2023-05-05T11:14:01.554Z,51.5
2023-05-05T11:15:02.991Z,50.6
2023-05-05T11:16:03.292Z,51.1
2023-05-05T11:17:02.177Z,50.2
2023-05-05T11:18:04.875Z,52.1
2023-05-05T11:19:02.092Z,50.8
2023-05-05T11:20:04.371Z,49.9
2023-05-05T11:21:01.352Z,50.4
2023-05-05T11:22:01.849Z,51.1
2023-05-05T11:23:01.388Z,50.3
2023-05-05T11:24:01.860Z,49.9
2023-05-05T11:25:02.612Z,48.6
2023-05-05T11:26:01.993Z,50.1
2023-05-05T11:27:01.620Z,52
2023-05-05T11:28:02.000Z,50.7
2023-05-05T11:29:03.205Z,51.2
2023-05-05T11:30:04.293Z,51.4
2023-05-05T11:31:01.891Z,49.1
2023-05-05T11:32:03.118Z,50.4
2023-05-05T11:33:01.894Z,49.3
2023-05-05T11:34:01.358Z,49.4
2023-05-05T11:35:02.688Z,48.7
2023-05-05T11:36:03.451Z,48.4
2023-05-05T11:37:02.088Z,49.9
2023-05-05T11:38:01.588Z,49.3
2023-05-05T11:39:02.090Z,47.7
2023-05-05T11:40:01.720Z,49.4
2023-05-05T11:41:02.413Z,48.4
2023-05-05T11:42:06.560Z,49.3
2023-05-05T11:43:06.403Z,48.5
2023-05-05T11:44:02.067Z,49.6
2023-05-05T11:45:02.263Z,48.4
2023-05-05T11:46:02.233Z,47.9
2023-05-05T11:47:01.621Z,47
2023-05-05T11:48:02.116Z,47.9
2023-05-05T11:49:01.606Z,51.4
2023-05-05T11:50:02.128Z,50.5
2023-05-05T11:51:01.602Z,49.5
2023-05-05T11:52:02.224Z,49.9
2023-05-05T11:53:03.295Z,50.8
2023-05-05T11:54:02.104Z,49.9
2023-05-05T11:55:02.374Z,49.2
2023-05-05T11:56:02.252Z,48.6
2023-05-05T11:57:01.631Z,46.5
2023-05-05T11:58:03.773Z,47.5
2023-05-05T11:59:01.595Z,48.7
2023-05-05T12:00:02.113Z,48.3
2023-05-05T12:01:01.531Z,48.7
2023-05-05T12:02:02.121Z,46.8
2023-05-05T12:03:01.598Z,47.1
2023-05-05T12:04:03.896Z,49.3
2023-05-05T12:05:02.163Z,48.3
2023-05-05T12:06:02.139Z,48.7
2023-05-05T12:07:01.540Z,49.9
2023-05-05T12:08:02.018Z,51.1
2023-05-05T12:09:01.608Z,50
2023-05-05T12:10:02.139Z,51.1
2023-05-05T12:11:01.534Z,47.6
2023-05-05T12:12:02.001Z,51.1
2023-05-05T12:13:01.567Z,50.2
2023-05-05T12:14:02.026Z,51.8
2023-05-05T12:15:02.343Z,49.8
2023-05-05T12:16:03.809Z,52
2023-05-05T12:17:01.521Z,51.5
2023-05-05T12:18:03.252Z,50.4
2023-05-05T12:19:03.276Z,50.1
2023-05-05T12:20:03.782Z,49.1
2023-05-05T12:21:01.465Z,49
2023-05-05T12:22:03.607Z,49.7
2023-05-05T12:23:01.436Z,48.6
2023-05-05T12:24:01.935Z,49.3
2023-05-05T12:25:03.857Z,49
2023-05-05T12:26:02.444Z,48.4
2023-05-05T12:27:01.833Z,48.9
2023-05-05T12:28:03.989Z,47.1
2023-05-05T12:29:01.766Z,48.2
2023-05-05T12:30:02.385Z,49.3
2023-05-05T12:31:03.452Z,49.1
2023-05-05T12:32:02.312Z,50
2023-05-05T12:33:01.798Z,49.8
2023-05-05T12:34:02.239Z,50.2
2023-05-05T12:35:04.421Z,50.2
2023-05-05T12:36:01.558Z,48.6
2023-05-05T12:37:01.982Z,51.3
2023-05-05T12:38:01.432Z,50.9
2023-05-05T12:39:03.774Z,50.2
2023-05-05T12:40:01.808Z,48.3
2023-05-05T12:41:02.056Z,50.4
2023-05-05T12:42:01.518Z,48.5
2023-05-05T12:43:02.021Z,48.2
2023-05-05T12:44:01.522Z,45.4
2023-05-05T12:45:02.801Z,46.6
2023-05-05T12:46:03.401Z,48.8
2023-05-05T12:47:02.145Z,46.9
2023-05-05T12:48:01.714Z,48.8
2023-05-05T12:49:02.151Z,46.1
2023-05-05T12:50:01.994Z,47.6
2023-05-05T12:51:01.364Z,47.6
2023-05-05T12:52:01.842Z,46.6
2023-05-05T12:53:02.350Z,48.5
2023-05-05T12:54:01.857Z,47.6
2023-05-05T12:55:02.056Z,45.1
2023-05-05T12:56:01.853Z,47.1
2023-05-05T12:57:03.051Z,46.7
2023-05-05T12:58:01.886Z,47.1
2023-05-05T13:00:02.645Z,47.9
2023-05-05T13:01:02.359Z,48.5
2023-05-05T13:02:02.803Z,47.1
2023-05-05T13:03:01.720Z,47.4
2023-05-05T13:04:03.625Z,46.6
2023-05-05T13:05:03.827Z,49
2023-05-05T13:06:02.341Z,47
2023-05-05T13:07:01.788Z,47.9
2023-05-05T13:08:02.272Z,48.7
2023-05-05T13:09:01.705Z,49.2
2023-05-05T13:10:02.177Z,51.2
2023-05-05T13:11:03.304Z,46.4
2023-05-05T13:12:02.203Z,47.5
2023-05-05T13:13:01.640Z,50
2023-05-05T13:14:02.126Z,47.1
2023-05-05T13:15:02.845Z,47.1
2023-05-05T13:16:02.219Z,46.9
2023-05-05T13:17:01.647Z,48.4
2023-05-05T13:18:03.808Z,49.9
2023-05-05T13:19:01.628Z,48.8
2023-05-05T13:20:02.265Z,47.8
2023-05-05T13:21:01.659Z,48
2023-05-05T13:22:03.809Z,49.8
2023-05-05T13:23:01.565Z,49
2023-05-05T13:25:02.800Z,49.6
2023-05-05T13:26:01.552Z,48.5
2023-05-05T13:27:02.027Z,47.1
2023-05-05T13:28:01.569Z,47.3
2023-05-05T13:29:02.091Z,46.6
2023-05-05T13:30:02.114Z,48
2023-05-05T13:31:03.756Z,46
2023-05-05T13:32:01.438Z,47.6
2023-05-05T13:33:02.020Z,47.5
2023-05-05T13:34:01.477Z,47.7
2023-05-05T13:35:04.284Z,45
2023-05-05T13:36:03.452Z,46.7
2023-05-05T13:37:02.246Z,49.1
2023-05-05T13:38:01.791Z,46.8